Time;durP1;ratioP1;P1;durP2;ratioP2;P2;SDS_P1;SDS_P2;PMS_P1;PMS_P2;Temp;Humidity;BMP_temperature;BMP_pressure;BME280_temperature;BME280_humidity;BME280_pressure;Samples;Min_cycle;Max_cycle;Signal;HPM_P1;HPM_P2
2021/06/12 00:01:18;;;;;;;;;;;;;;;21.65;60.41;99508.66;5090758;28;19962;-38
2021/06/12 00:03:43;;;;;;;;;;;;;;;21.40;61.21;99515.03;5092283;28;20389;-38
2021/06/12 00:06:08;;;;;;;;;;;;;;;21.32;61.65;99508.31;5092182;28;19911;-37
2021/06/12 00:08:34;;;;;;;;;;;;;;;21.38;61.89;99509.91;5092449;28;20288;-37
2021/06/12 00:11:02;;;;;;;;;;;;;;;21.29;62.00;99514.28;5092461;28;19912;-37
2021/06/12 00:13:28;;;;;;;;;;;;;;;21.50;61.71;99512.28;5092391;28;19923;-37
2021/06/12 00:15:54;;;;;;;;;;;;;;;21.67;61.46;99514.63;5092227;28;19920;-38
2021/06/12 00:18:19;;;;;;;;;;;;;;;21.65;60.85;99514.09;5091968;28;20022;-37
2021/06/12 00:20:45;;;;;;;;;;;;;;;21.63;61.13;99513.56;5092179;28;20022;-38
2021/06/12 00:23:10;;;;;;;;;;;;;;;21.82;60.29;99511.78;5110904;28;19918;-39
2021/06/12 00:25:38;;;;;;;;;;;;;;;21.70;60.98;99510.53;5093925;28;19912;-38
2021/06/12 00:28:03;;;;;;;;;;;;;;;21.69;60.46;99488.06;5092028;28;19912;-38
2021/06/12 00:30:28;;;;;;;;;;;;;;;21.96;60.05;99517.34;5092031;28;19919;-38
2021/06/12 00:32:54;;;;;;;;;;;;;;;21.94;59.92;99511.41;5092126;28;19912;-38
2021/06/12 00:35:20;;;;;;;;;;;;;;;21.96;60.15;99511.94;5090717;28;20331;-37
2021/06/12 00:37:45;;;;;;;;;;;;;;;21.93;60.32;99515.19;5091763;28;20351;-37
2021/06/12 00:40:11;;;;;;;;;;;;;;;22.00;59.95;99514.88;5091676;28;19959;-37
2021/06/12 00:42:39;;;;;;;;;;;;;;;22.04;59.61;99507.78;5091210;28;20014;-38
2021/06/12 00:45:12;;;;;;;;;;;;;;;22.05;59.34;99517.56;5091315;28;19912;-38
2021/06/12 00:47:37;;;;;;;;;;;;;;;22.14;59.34;99517.72;5091595;28;19978;-38
2021/06/12 00:50:03;;;;;;;;;;;;;;;22.04;59.44;99513.22;5091276;28;20535;-38
2021/06/12 00:52:28;;;;;;;;;;;;;;;22.08;59.42;99519.66;5091377;28;19972;-37
2021/06/12 00:54:54;;;;;;;;;;;;;;;22.02;59.43;99512.69;5091263;28;20050;-38
2021/06/12 00:57:19;;;;;;;;;;;;;;;22.06;59.02;99513.72;5089809;28;19916;-38
2021/06/12 00:59:44;;;;;;;;;;;;;;;21.77;58.92;99511.81;5091933;28;19916;-38
2021/06/12 01:02:09;;;;;;;;;;;;;;;21.80;59.18;99513.13;5091784;28;19912;-36
2021/06/12 01:04:35;;;;;;;;;;;;;;;21.78;59.18;99510.75;5091740;28;19923;-37
2021/06/12 01:07:00;;;;;;;;;;;;;;;21.56;60.22;99510.38;5091257;28;19919;-38
2021/06/12 01:09:25;;;;;;;;;;;;;;;21.40;60.63;99518.56;5091259;28;19912;-37
2021/06/12 01:12:09;;;;;;;;;;;;;;;21.46;60.46;99522.88;5091185;28;20033;-38
2021/06/12 01:14:35;;;;;;;;;;;;;;;21.68;59.67;99518.91;5091479;28;20038;-37
2021/06/12 01:17:02;;;;;;;;;;;;;;;21.53;60.06;99529.88;5091407;28;19938;-38
2021/06/12 01:19:46;;;;;;;;;;;;;;;21.72;58.91;99522.69;5090976;28;19920;-37
2021/06/12 01:22:12;;;;;;;;;;;;;;;21.77;59.18;99533.47;5100861;28;20403;-38
2021/06/12 01:24:38;;;;;;;;;;;;;;;21.79;58.79;99533.19;5100077;28;20419;-38
2021/06/12 01:27:15;;;;;;;;;;;;;;;21.83;58.74;99532.34;5091747;28;19995;-38
2021/06/12 01:29:59;;;;;;;;;;;;;;;21.84;58.60;99535.88;5091349;28;19912;-38
2021/06/12 01:32:25;;;;;;;;;;;;;;;21.61;59.12;99524.66;5091697;28;19913;-37
2021/06/12 01:34:50;;;;;;;;;;;;;;;21.61;59.34;99519.25;5090268;28;19919;-37
2021/06/12 01:37:15;;;;;;;;;;;;;;;21.66;59.21;99529.22;5090008;28;19927;-38
2021/06/12 01:39:40;;;;;;;;;;;;;;;21.75;58.80;99526.75;5091567;28;20079;-37
2021/06/12 01:42:06;;;;;;;;;;;;;;;21.72;58.70;99524.59;5091586;28;19912;-39
2021/06/12 01:44:32;;;;;;;;;;;;;;;21.69;58.55;99533.28;5091626;28;19998;-39
2021/06/12 01:46:57;;;;;;;;;;;;;;;21.64;58.85;99526.78;5089921;28;19912;-38
2021/06/12 01:49:22;;;;;;;;;;;;;;;21.70;58.87;99526.75;5089836;28;19938;-38
2021/06/12 01:51:49;;;;;;;;;;;;;;;21.77;58.87;99519.13;5090031;28;20383;-37
2021/06/12 01:54:16;;;;;;;;;;;;;;;21.81;58.67;99526.41;5091258;28;19908;-38
2021/06/12 01:56:42;;;;;;;;;;;;;;;21.75;59.21;99522.13;5091105;28;19969;-39
2021/06/12 01:59:08;;;;;;;;;;;;;;;21.81;58.68;99523.69;5089794;28;19939;-39
2021/06/12 02:01:33;;;;;;;;;;;;;;;21.65;58.89;99522.22;5090034;28;20252;-38
2021/06/12 02:04:00;;;;;;;;;;;;;;;21.73;58.30;99527.00;5089490;28;20022;-36
2021/06/12 02:06:25;;;;;;;;;;;;;;;21.72;58.59;99527.28;5090544;28;20029;-39
2021/06/12 02:08:50;;;;;;;;;;;;;;;21.75;58.36;99534.88;5089628;28;19987;-38
2021/06/12 02:11:16;;;;;;;;;;;;;;;21.81;58.45;99537.22;5091139;28;19920;-38
2021/06/12 02:13:41;;;;;;;;;;;;;;;21.70;58.47;99532.97;5091266;28;20371;-39
2021/06/12 02:16:07;;;;;;;;;;;;;;;21.76;58.25;99531.03;5089761;28;19916;-38
2021/06/12 02:18:32;;;;;;;;;;;;;;;21.72;58.30;99536.22;5090700;28;20340;-38
2021/06/12 02:20:58;;;;;;;;;;;;;;;21.79;58.06;99536.72;5094760;28;19916;-38
2021/06/12 02:23:23;;;;;;;;;;;;;;;21.53;58.42;99536.06;5094001;28;19919;-38
2021/06/12 02:25:48;;;;;;;;;;;;;;;21.49;58.62;99532.31;5093452;28;19912;-37
2021/06/12 02:28:14;;;;;;;;;;;;;;;21.51;58.56;99534.75;5093682;28;19912;-38
2021/06/12 02:30:50;;;;;;;;;;;;;;;21.47;58.79;99545.31;5094995;28;20316;-37
2021/06/12 02:33:16;;;;;;;;;;;;;;;20.95;59.71;99533.94;5094722;28;20052;-37
2021/06/12 02:35:41;;;;;;;;;;;;;;;20.95;59.83;99533.13;5093073;28;19943;-38
2021/06/12 02:38:07;;;;;;;;;;;;;;;21.19;59.27;99536.81;5094515;28;20006;-38
2021/06/12 02:40:32;;;;;;;;;;;;;;;20.99;59.54;99540.41;5094589;28;19999;-37
2021/06/12 02:42:57;;;;;;;;;;;;;;;21.11;59.77;99544.69;5094344;28;19912;-38
2021/06/12 02:45:23;;;;;;;;;;;;;;;21.08;59.35;99546.88;5094338;28;20290;-38
2021/06/12 02:47:50;;;;;;;;;;;;;;;21.15;59.40;99545.75;5092899;28;19912;-37
2021/06/12 02:50:15;;;;;;;;;;;;;;;21.13;58.71;99545.22;5092842;28;20328;-37
2021/06/12 02:52:41;;;;;;;;;;;;;;;20.93;59.91;99546.13;5093116;28;19927;-38
2021/06/12 02:55:07;;;;;;;;;;;;;;;20.78;60.32;99539.69;5094082;28;19912;-38
2021/06/12 02:57:33;;;;;;;;;;;;;;;21.05;59.81;99541.19;5093934;28;20018;-37
2021/06/12 02:59:59;;;;;;;;;;;;;;;20.90;59.83;99552.88;5092182;28;19919;-36
2021/06/12 03:02:24;;;;;;;;;;;;;;;20.77;59.88;99546.19;5092605;28;19919;-39
2021/06/12 03:04:49;;;;;;;;;;;;;;;21.03;59.70;99557.69;5075793;28;19912;-38
2021/06/12 03:07:15;;;;;;;;;;;;;;;21.20;59.59;99559.25;5092582;28;20428;-38
2021/06/12 03:09:41;;;;;;;;;;;;;;;21.34;59.44;99557.53;5093056;28;20353;-38
2021/06/12 03:12:07;;;;;;;;;;;;;;;21.59;59.02;99558.50;5094148;28;19920;-36
2021/06/12 03:14:32;;;;;;;;;;;;;;;21.68;58.57;99567.66;5092766;28;19923;-38
2021/06/12 03:16:57;;;;;;;;;;;;;;;21.78;57.69;99556.78;5092846;28;20330;-37
2021/06/12 03:19:23;;;;;;;;;;;;;;;21.86;57.65;99564.28;5092398;28;19924;-38
2021/06/12 03:21:48;;;;;;;;;;;;;;;21.90;57.15;99566.44;5082256;28;19912;-38
2021/06/12 03:24:14;;;;;;;;;;;;;;;21.98;56.70;99565.81;5105964;28;20254;-38
2021/06/12 03:26:39;;;;;;;;;;;;;;;21.90;56.45;99563.72;5092506;28;19912;-38
2021/06/12 03:29:04;;;;;;;;;;;;;;;21.63;57.35;99570.44;5092034;28;20456;-39
2021/06/12 03:31:30;;;;;;;;;;;;;;;21.54;57.59;99566.69;5093825;28;19924;-37
2021/06/12 03:33:55;;;;;;;;;;;;;;;21.64;57.36;99570.13;5092430;28;20407;-37
2021/06/12 03:36:21;;;;;;;;;;;;;;;21.77;56.97;99567.88;5092848;28;20323;-38
2021/06/12 03:38:46;;;;;;;;;;;;;;;21.80;57.01;99570.84;5091671;28;20380;-37
2021/06/12 03:41:11;;;;;;;;;;;;;;;21.83;56.75;99572.97;5092880;28;19912;-37
2021/06/12 03:43:36;;;;;;;;;;;;;;;21.93;55.80;99576.69;5091650;28;19912;-38
2021/06/12 03:46:02;;;;;;;;;;;;;;;21.61;56.45;99581.53;5092756;28;19969;-38
2021/06/12 03:48:28;;;;;;;;;;;;;;;21.69;56.57;99573.91;5092770;28;19915;-38
2021/06/12 03:50:53;;;;;;;;;;;;;;;21.83;56.23;99570.25;5092671;28;19912;-52
2021/06/12 03:53:21;;;;;;;;;;;;;;;21.78;55.74;99580.31;5090911;28;20424;-51
2021/06/12 03:55:47;;;;;;;;;;;;;;;21.92;56.03;99572.38;5092589;28;20346;-39
2021/06/12 03:58:12;;;;;;;;;;;;;;;21.83;56.40;99577.59;5092188;28;20414;-38
2021/06/12 04:00:38;;;;;;;;;;;;;;;21.50;56.47;99579.97;5092492;28;20291;-38
2021/06/12 04:03:03;;;;;;;;;;;;;;;21.63;56.65;99581.25;5092421;28;19916;-39
2021/06/12 04:05:28;;;;;;;;;;;;;;;21.65;56.96;99592.59;5092414;28;19912;-37
2021/06/12 04:07:53;;;;;;;;;;;;;;;21.82;56.53;99592.22;5090961;28;20288;-37
2021/06/12 04:10:19;;;;;;;;;;;;;;;21.96;56.39;99595.91;5091669;28;19920;-49
2021/06/12 04:12:44;;;;;;;;;;;;;;;22.11;55.70;99588.75;5090689;28;19916;-49
2021/06/12 04:15:10;;;;;;;;;;;;;;;22.21;55.39;99592.16;5091723;28;19916;-51
2021/06/12 04:17:35;;;;;;;;;;;;;;;22.32;54.79;99589.41;5091092;28;19927;-52
2021/06/12 04:20:00;;;;;;;;;;;;;;;22.37;54.54;99587.47;5091130;28;19919;-52
2021/06/12 04:22:27;;;;;;;;;;;;;;;22.48;54.31;99595.50;5103802;28;19915;-51
2021/06/12 04:24:52;;;;;;;;;;;;;;;22.32;55.24;99594.84;5099401;28;20397;-50
2021/06/12 04:27:17;;;;;;;;;;;;;;;22.45;54.93;99592.25;5091677;28;20002;-52
2021/06/12 04:29:42;;;;;;;;;;;;;;;22.54;54.32;99600.59;5078759;28;19936;-51
2021/06/12 04:32:08;;;;;;;;;;;;;;;22.50;54.38;99599.53;5080894;28;19955;-50
2021/06/12 04:34:33;;;;;;;;;;;;;;;22.24;55.41;99601.66;5071429;28;19920;-39
2021/06/12 04:36:59;;;;;;;;;;;;;;;21.94;58.11;99602.72;5071481;28;20368;-38
2021/06/12 04:39:25;;;;;;;;;;;;;;;21.85;55.70;99603.28;5071774;28;19939;-39
2021/06/12 04:41:51;;;;;;;;;;;;;;;21.96;55.28;99605.94;5070706;28;20402;-38
2021/06/12 04:44:16;;;;;;;;;;;;;;;22.13;54.85;99608.25;5071716;28;19939;-39
2021/06/12 04:46:42;;;;;;;;;;;;;;;22.25;54.66;99603.28;5071349;28;19978;-38
2021/06/12 04:49:07;;;;;;;;;;;;;;;22.28;54.56;99602.72;5071395;28;19999;-37
2021/06/12 04:51:33;;;;;;;;;;;;;;;21.93;55.58;99614.63;5071508;28;19958;-38
2021/06/12 04:53:58;;;;;;;;;;;;;;;21.67;56.24;99609.38;5071454;28;20237;-43
2021/06/12 04:56:23;;;;;;;;;;;;;;;21.92;57.35;99619.22;5071376;28;19912;-38
2021/06/12 04:58:49;;;;;;;;;;;;;;;22.15;55.27;99606.88;5071250;28;19916;-38
2021/06/12 05:01:14;;;;;;;;;;;;;;;22.34;54.89;99612.44;5075369;28;20372;-39
2021/06/12 05:03:39;;;;;;;;;;;;;;;22.17;57.72;99614.72;5091502;28;20033;-38
2021/06/12 05:06:04;;;;;;;;;;;;;;;22.13;55.74;99605.53;5090891;28;20016;-38
2021/06/12 05:08:30;;;;;;;;;;;;;;;22.36;55.41;99620.28;5091373;28;19919;-38
2021/06/12 05:10:55;;;;;;;;;;;;;;;22.52;54.86;99619.03;5091463;28;19927;-39
2021/06/12 05:13:20;;;;;;;;;;;;;;;22.45;54.87;99615.88;5091282;28;19912;-38
2021/06/12 05:15:46;;;;;;;;;;;;;;;22.23;55.19;99616.28;5089793;28;19957;-38
2021/06/12 05:18:13;;;;;;;;;;;;;;;22.00;56.76;99624.03;5090778;28;19927;-37
2021/06/12 05:20:38;;;;;;;;;;;;;;;21.82;56.67;99628.25;5091270;28;19999;-39
2021/06/12 05:23:04;;;;;;;;;;;;;;;21.86;57.27;99623.06;5091251;28;20069;-39
2021/06/12 05:25:29;;;;;;;;;;;;;;;21.77;56.75;99628.25;5091459;28;19947;-38
2021/06/12 05:27:55;;;;;;;;;;;;;;;21.95;55.85;99626.81;5091233;28;19912;-37
2021/06/12 05:30:21;;;;;;;;;;;;;;;22.14;55.22;99626.94;5090900;28;19919;-37
2021/06/12 05:32:46;;;;;;;;;;;;;;;21.96;55.77;99628.41;5090855;28;20048;-38
2021/06/12 05:35:11;;;;;;;;;;;;;;;21.98;56.20;99626.22;5090835;28;19919;-37
2021/06/12 05:37:37;;;;;;;;;;;;;;;22.08;55.30;99628.03;5090900;28;19916;-38
2021/06/12 05:40:02;;;;;;;;;;;;;;;21.62;56.63;99633.78;5090850;28;20344;-38
2021/06/12 05:42:28;;;;;;;;;;;;;;;21.65;57.12;99635.94;5090863;28;19912;-38
2021/06/12 05:44:53;;;;;;;;;;;;;;;21.90;56.40;99639.56;5089494;28;19920;-38
2021/06/12 05:47:18;;;;;;;;;;;;;;;22.33;55.19;99635.22;5090899;28;19912;-38
2021/06/12 05:49:43;;;;;;;;;;;;;;;22.79;54.37;99633.94;5090402;28;20446;-38
2021/06/12 05:52:09;;;;;;;;;;;;;;;22.75;54.91;99632.91;5090683;28;19913;-38
2021/06/12 05:54:34;;;;;;;;;;;;;;;22.79;54.35;99634.78;5090589;28;20324;-48
2021/06/12 05:56:59;;;;;;;;;;;;;;;22.97;53.13;99635.13;5090168;28;20286;-48
2021/06/12 05:59:25;;;;;;;;;;;;;;;23.07;52.81;99628.81;5090356;28;20012;-47
2021/06/12 06:01:50;;;;;;;;;;;;;;;23.36;52.28;99637.69;5090586;28;19912;-48
2021/06/12 06:04:15;;;;;;;;;;;;;;;23.49;51.75;99635.34;5090200;28;20372;-51
2021/06/12 06:06:40;;;;;;;;;;;;;;;23.43;52.76;99642.75;5089682;28;19912;-51
2021/06/12 06:09:06;;;;;;;;;;;;;;;23.75;52.53;99638.53;5089790;28;19916;-48
2021/06/12 06:11:31;;;;;;;;;;;;;;;24.37;52.46;99638.44;5089970;28;19939;-49
2021/06/12 06:13:56;;;;;;;;;;;;;;;24.76;49.29;99635.28;5090311;28;19912;-48
2021/06/12 06:16:22;;;;;;;;;;;;;;;24.90;48.40;99632.59;5089949;28;20356;-48
2021/06/12 06:18:47;;;;;;;;;;;;;;;24.90;48.68;99635.31;5089659;28;20011;-50
2021/06/12 06:21:12;;;;;;;;;;;;;;;25.12;47.13;99629.16;5089369;28;20364;-38
2021/06/12 06:23:38;;;;;;;;;;;;;;;25.49;46.98;99635.53;5090167;28;19916;-38
2021/06/12 06:26:03;;;;;;;;;;;;;;;25.90;46.16;99631.06;5090085;28;20317;-37
2021/06/12 06:28:28;;;;;;;;;;;;;;;26.30;45.40;99636.69;5089860;28;19920;-37
2021/06/12 06:30:54;;;;;;;;;;;;;;;26.55;45.21;99626.25;5089777;28;19916;-37
2021/06/12 06:33:21;;;;;;;;;;;;;;;26.07;45.08;99623.06;5089637;28;19960;-38
2021/06/12 06:35:47;;;;;;;;;;;;;;;26.53;43.32;99632.81;5089498;28;19923;-38
2021/06/12 06:38:12;;;;;;;;;;;;;;;27.04;44.24;99629.84;5089531;28;19917;-37
2021/06/12 06:40:37;;;;;;;;;;;;;;;27.48;42.11;99622.59;5089538;28;19913;-38
2021/06/12 06:43:03;;;;;;;;;;;;;;;27.34;42.65;99624.66;5089721;28;19912;-38
2021/06/12 06:45:28;;;;;;;;;;;;;;;27.87;42.17;99624.41;5089821;28;19985;-37
2021/06/12 06:47:53;;;;;;;;;;;;;;;28.34;40.17;99622.91;5089639;28;20368;-38
2021/06/12 06:50:19;;;;;;;;;;;;;;;28.01;40.15;99620.72;5089005;28;19947;-37
2021/06/12 06:52:46;;;;;;;;;;;;;;;28.72;39.52;99623.00;5085695;28;19912;-37
2021/06/12 06:55:12;;;;;;;;;;;;;;;29.34;38.61;99618.03;5069503;28;19923;-37
2021/06/12 06:57:37;;;;;;;;;;;;;;;29.62;37.76;99615.56;5069070;28;19920;-38
2021/06/12 07:00:03;;;;;;;;;;;;;;;30.00;36.49;99614.66;5067577;28;19971;-38
2021/06/12 07:02:28;;;;;;;;;;;;;;;30.26;36.24;99616.34;5069431;28;20370;-38
2021/06/12 07:04:53;;;;;;;;;;;;;;;30.32;35.55;99615.03;5070761;28;19962;-39
2021/06/12 07:07:19;;;;;;;;;;;;;;;30.23;35.68;99614.28;5072710;28;19916;-37
2021/06/12 07:09:44;;;;;;;;;;;;;;;29.66;36.12;99604.75;5072471;28;20329;-38
2021/06/12 07:12:10;;;;;;;;;;;;;;;29.31;36.39;99615.97;5072622;28;19927;-37
2021/06/12 07:14:37;;;;;;;;;;;;;;;29.18;36.68;99598.63;5072348;28;19920;-38
2021/06/12 07:17:03;;;;;;;;;;;;;;;29.73;35.95;99605.84;5072510;28;20525;-38
2021/06/12 07:19:28;;;;;;;;;;;;;;;30.13;35.12;99605.31;5072553;28;19995;-38
2021/06/12 07:21:53;;;;;;;;;;;;;;;30.33;34.61;99605.63;5088054;28;20355;-38
2021/06/12 07:24:18;;;;;;;;;;;;;;;30.39;34.67;99612.53;5113073;28;19912;-38
2021/06/12 07:26:44;;;;;;;;;;;;;;;30.12;35.94;99609.22;5113114;28;20007;-37
2021/06/12 07:29:10;;;;;;;;;;;;;;;29.82;35.75;99603.03;5112935;28;19911;-38
2021/06/12 07:31:36;;;;;;;;;;;;;;;29.88;35.66;99600.91;5112799;28;20386;-37
2021/06/12 07:34:01;;;;;;;;;;;;;;;29.85;36.01;99605.09;5113087;28;19919;-38
2021/06/12 07:36:27;;;;;;;;;;;;;;;29.31;36.06;99602.28;5113557;28;19915;-37
2021/06/12 07:38:53;;;;;;;;;;;;;;;30.14;35.26;99595.13;5113783;28;19923;-38
2021/06/12 07:41:18;;;;;;;;;;;;;;;30.31;35.31;99597.72;5113626;28;19931;-37
2021/06/12 07:43:43;;;;;;;;;;;;;;;29.88;34.47;99596.19;5113541;28;20321;-38
2021/06/12 07:46:08;;;;;;;;;;;;;;;30.09;34.09;99593.41;5113587;28;20002;-38
2021/06/12 07:48:34;;;;;;;;;;;;;;;30.59;33.44;99592.41;5101898;28;19927;-38
2021/06/12 07:50:59;;;;;;;;;;;;;;;30.84;32.83;99595.16;5093261;28;19938;-38
2021/06/12 07:53:24;;;;;;;;;;;;;;;30.83;32.48;99593.59;5093064;28;19919;-37
2021/06/12 07:55:50;;;;;;;;;;;;;;;31.12;31.74;99600.00;5092765;28;20023;-38
2021/06/12 07:58:15;;;;;;;;;;;;;;;31.51;32.18;99597.66;5092393;28;20002;-38
2021/06/12 08:00:40;;;;;;;;;;;;;;;31.74;30.78;99590.50;5093081;28;19944;-38
2021/06/12 08:03:06;;;;;;;;;;;;;;;32.01;30.63;99590.84;5092183;28;20054;-38
2021/06/12 08:05:31;;;;;;;;;;;;;;;32.02;31.18;99589.72;5092125;28;19913;-39
2021/06/12 08:07:56;;;;;;;;;;;;;;;32.04;30.35;99592.13;5092523;28;19916;-38
2021/06/12 08:10:22;;;;;;;;;;;;;;;31.49;30.62;99587.03;5092455;28;19912;-38
2021/06/12 08:12:47;;;;;;;;;;;;;;;31.13;31.72;99583.19;5091726;28;19916;-38
2021/06/12 08:15:13;;;;;;;;;;;;;;;31.38;31.32;99586.69;5091564;28;19981;-38
2021/06/12 08:17:38;;;;;;;;;;;;;;;31.91;30.56;99577.59;5090966;28;19916;-39
2021/06/12 08:20:04;;;;;;;;;;;;;;;32.47;30.04;99587.75;5092116;28;19916;-38
2021/06/12 08:22:29;;;;;;;;;;;;;;;32.40;29.17;99582.84;5104722;28;20424;-38
2021/06/12 08:24:54;;;;;;;;;;;;;;;32.42;28.64;99583.28;5112625;28;20378;-38
2021/06/12 08:27:19;;;;;;;;;;;;;;;33.09;28.37;99591.63;5112890;28;19912;-38
2021/06/12 08:29:46;;;;;;;;;;;;;;;33.46;27.42;99584.97;5113058;28;20412;-38
2021/06/12 08:32:11;;;;;;;;;;;;;;;34.02;26.43;99578.22;5112381;28;20270;-38
2021/06/12 08:34:37;;;;;;;;;;;;;;;34.49;27.35;99587.38;5111409;28;19916;-38
2021/06/12 08:37:03;;;;;;;;;;;;;;;34.38;26.43;99579.69;5111842;28;19912;-38
2021/06/12 08:39:29;;;;;;;;;;;;;;;33.52;27.42;99585.50;5112443;28;19947;-38
2021/06/12 08:41:54;;;;;;;;;;;;;;;34.02;26.35;99581.78;5112520;28;19974;-38
2021/06/12 08:44:20;;;;;;;;;;;;;;;33.56;28.33;99578.88;5111856;28;19911;-38
2021/06/12 08:46:46;;;;;;;;;;;;;;;33.66;27.36;99581.09;5111628;28;19933;-37
2021/06/12 08:49:11;;;;;;;;;;;;;;;33.72;28.17;99578.84;5111882;28;20405;-38
2021/06/12 08:51:36;;;;;;;;;;;;;;;34.16;27.34;99569.47;5110332;28;20002;-38
2021/06/12 08:54:01;;;;;;;;;;;;;;;34.51;27.51;99577.53;5111749;28;19994;-38
2021/06/12 08:56:27;;;;;;;;;;;;;;;34.74;26.86;99569.25;5110396;28;20398;-37
2021/06/12 08:58:52;;;;;;;;;;;;;;;34.02;27.42;99567.97;5111029;28;19916;-37
2021/06/12 09:01:18;;;;;;;;;;;;;;;34.16;27.58;99570.25;5111677;28;20417;-38
2021/06/12 09:03:44;;;;;;;;;;;;;;;34.22;27.62;99556.94;5111394;28;20316;-38
2021/06/12 09:06:10;;;;;;;;;;;;;;;34.23;28.64;99555.75;5103988;28;20387;-37
2021/06/12 09:08:41;;;;;;;;;;;;;;;34.59;28.03;99562.69;5091350;28;19919;-37
2021/06/12 09:11:06;;;;;;;;;;;;;;;34.84;27.48;99557.59;5091314;28;19923;-39
2021/06/12 09:13:39;;;;;;;;;;;;;;;35.00;25.83;99535.31;5091213;28;19932;-38
2021/06/12 09:16:05;;;;;;;;;;;;;;;35.04;26.38;99547.19;5090866;28;19916;-38
2021/06/12 09:18:37;;;;;;;;;;;;;;;33.91;28.05;99546.88;5090384;28;19926;-37
2021/06/12 09:21:02;;;;;;;;;;;;;;;34.13;28.56;99543.34;5090610;28;20006;-38
2021/06/12 09:23:28;;;;;;;;;;;;;;;34.08;26.94;99549.97;5090680;28;20003;-38
2021/06/12 09:25:53;;;;;;;;;;;;;;;32.26;29.24;99544.75;5089329;28;19916;-38
2021/06/12 09:28:18;;;;;;;;;;;;;;;32.33;29.28;99544.16;5090345;28;19912;-37
2021/06/12 09:30:43;;;;;;;;;;;;;;;32.46;28.95;99545.66;5090819;28;19919;-38
2021/06/12 09:33:09;;;;;;;;;;;;;;;32.62;29.65;99537.41;5091139;28;20323;-38
2021/06/12 09:35:35;;;;;;;;;;;;;;;32.74;29.08;99542.00;5090075;28;20398;-38
2021/06/12 09:38:00;;;;;;;;;;;;;;;32.50;29.82;99537.44;5090632;28;19916;-38
2021/06/12 09:40:28;;;;;;;;;;;;;;;32.91;29.14;99538.84;5090378;28;19912;-38
2021/06/12 09:42:55;;;;;;;;;;;;;;;33.83;28.78;99526.63;5090246;28;19993;-39
2021/06/12 09:45:30;;;;;;;;;;;;;;;33.14;28.95;99534.66;5089018;28;20468;-37
2021/06/12 09:48:11;;;;;;;;;;;;;;;34.03;26.85;99532.91;5089978;28;20006;-38
2021/06/12 09:50:37;;;;;;;;;;;;;;;34.83;26.71;99535.84;5090154;28;20339;-38
2021/06/12 09:53:11;;;;;;;;;;;;;;;34.19;28.53;99532.81;5090125;28;19948;-38
2021/06/12 09:55:36;;;;;;;;;;;;;;;35.21;27.18;99526.53;5090350;28;20384;-38
2021/06/12 09:58:02;;;;;;;;;;;;;;;34.03;27.75;99535.66;5089969;28;19963;-37
2021/06/12 10:00:27;;;;;;;;;;;;;;;35.03;25.80;99531.81;5090330;28;19990;-38
2021/06/12 10:02:53;;;;;;;;;;;;;;;35.72;25.29;99533.50;5089888;28;19912;-38
2021/06/12 10:05:18;;;;;;;;;;;;;;;36.19;25.26;99520.94;5088418;28;19943;-38
2021/06/12 10:07:43;;;;;;;;;;;;;;;36.67;25.22;99535.97;5089904;28;20429;-38
2021/06/12 10:10:11;;;;;;;;;;;;;;;36.59;24.46;99530.34;5090270;28;19916;-39
2021/06/12 10:12:36;;;;;;;;;;;;;;;36.51;24.11;99531.47;5090308;28;20287;-37
2021/06/12 10:15:02;;;;;;;;;;;;;;;36.06;24.09;99516.03;5090077;28;20414;-38
2021/06/12 10:17:28;;;;;;;;;;;;;;;36.35;23.82;99523.44;5089904;28;19912;-38
2021/06/12 10:19:53;;;;;;;;;;;;;;;36.53;23.48;99522.78;5090398;28;19912;-38
2021/06/12 10:22:19;;;;;;;;;;;;;;;36.50;23.18;99521.56;5101607;28;19916;-38
2021/06/12 10:24:44;;;;;;;;;;;;;;;36.45;25.29;99521.94;5110607;28;19919;-38
2021/06/12 10:27:09;;;;;;;;;;;;;;;36.13;24.42;99514.09;5108608;28;20007;-37
2021/06/12 10:29:35;;;;;;;;;;;;;;;35.84;24.98;99509.50;5110194;28;19953;-38
2021/06/12 10:32:01;;;;;;;;;;;;;;;36.03;25.56;99509.28;5110117;28;19911;-38
2021/06/12 10:34:27;;;;;;;;;;;;;;;36.07;23.37;99503.78;5108762;28;19912;-38
2021/06/12 10:36:56;;;;;;;;;;;;;;;36.11;23.64;99494.31;5110203;28;19912;-38
2021/06/12 10:39:25;;;;;;;;;;;;;;;35.78;24.56;99500.75;5110657;28;19997;-36
2021/06/12 10:42:07;;;;;;;;;;;;;;;35.56;24.43;99496.91;5113847;28;19928;-37
2021/06/12 10:44:32;;;;;;;;;;;;;;;35.36;24.97;99497.09;5112653;28;19912;-38
2021/06/12 10:46:57;;;;;;;;;;;;;;;35.14;25.54;99495.19;5104453;28;20494;-38
2021/06/12 10:49:26;;;;;;;;;;;;;;;35.22;25.87;99488.59;5093580;28;19912;-38
2021/06/12 10:51:52;;;;;;;;;;;;;;;35.15;24.12;99494.03;5093440;28;19912;-38
2021/06/12 10:54:22;;;;;;;;;;;;;;;35.40;25.24;99488.84;5093440;28;20356;-37
2021/06/12 10:56:52;;;;;;;;;;;;;;;35.54;24.48;99477.91;5093375;28;19916;-38
2021/06/12 10:59:33;;;;;;;;;;;;;;;34.43;24.27;99481.94;5093027;28;19927;-38
2021/06/12 11:02:03;;;;;;;;;;;;;;;32.05;27.67;99473.44;5093152;28;19916;-38
2021/06/12 11:04:41;;;;;;;;;;;;;;;32.00;27.88;99470.13;5093443;28;19919;-37
2021/06/12 11:07:26;;;;;;;;;;;;;;;32.57;27.95;99466.06;5093187;28;19916;-38
2021/06/12 11:10:12;;;;;;;;;;;;;;;33.05;27.79;99468.69;5092693;28;20410;-37
2021/06/12 11:12:46;;;;;;;;;;;;;;;33.20;27.85;99462.34;5092741;28;20015;-37
2021/06/12 11:15:12;;;;;;;;;;;;;;;33.95;26.36;99462.19;5093058;28;19931;-38
2021/06/12 11:17:38;;;;;;;;;;;;;;;34.31;25.64;99463.63;5092204;28;20007;-38
2021/06/12 11:20:03;;;;;;;;;;;;;;;34.36;25.21;99459.72;5092734;28;19919;-36
2021/06/12 11:22:30;;;;;;;;;;;;;;;34.16;25.27;99457.06;5105121;28;20359;-38
2021/06/12 11:24:57;;;;;;;;;;;;;;;34.53;26.05;99458.41;5113181;28;19919;-37
2021/06/12 11:27:26;;;;;;;;;;;;;;;34.38;25.10;99460.16;5113083;28;19919;-37
2021/06/12 11:30:10;;;;;;;;;;;;;;;34.91;25.54;99457.38;5113134;28;19968;-38
2021/06/12 11:32:36;;;;;;;;;;;;;;;35.37;23.34;99453.63;5113319;28;19935;-38
2021/06/12 11:35:01;;;;;;;;;;;;;;;33.53;25.96;99443.66;5112686;28;19912;-38
2021/06/12 11:37:28;;;;;;;;;;;;;;;31.41;28.43;99449.69;5112506;28;19915;-39
2021/06/12 11:39:55;;;;;;;;;;;;;;;31.70;28.10;99449.34;5112619;28;19911;-37
2021/06/12 11:42:20;;;;;;;;;;;;;;;32.51;27.15;99442.69;5111836;28;20448;-38
2021/06/12 11:44:45;;;;;;;;;;;;;;;32.56;27.84;99436.09;5112532;28;19995;-38
2021/06/12 11:47:11;;;;;;;;;;;;;;;32.68;28.29;99434.06;5112435;28;19939;-38
2021/06/12 11:49:47;;;;;;;;;;;;;;;32.78;28.02;99421.69;5112469;28;19916;-38
2021/06/12 11:52:12;;;;;;;;;;;;;;;32.18;28.81;99421.88;5112352;28;19949;-38
2021/06/12 11:54:38;;;;;;;;;;;;;;;32.72;28.63;99429.44;5112320;28;19919;-37
2021/06/12 11:57:03;;;;;;;;;;;;;;;32.53;27.88;99416.38;5112294;28;20344;-37
2021/06/12 11:59:30;;;;;;;;;;;;;;;30.82;29.73;99415.41;5112201;28;19922;-37
2021/06/12 12:02:00;;;;;;;;;;;;;;;31.06;29.95;99398.88;5112508;28;19911;-38
2021/06/12 12:04:26;;;;;;;;;;;;;;;31.95;29.06;99405.97;5112512;28;20333;-38
2021/06/12 12:06:51;;;;;;;;;;;;;;;31.26;28.84;99397.06;5110856;28;19923;-38
2021/06/12 12:09:20;;;;;;;;;;;;;;;30.92;30.64;99390.22;5112216;28;19969;-37
2021/06/12 12:11:47;;;;;;;;;;;;;;;31.76;29.78;99398.44;5112812;28;19911;-38
2021/06/12 12:14:13;;;;;;;;;;;;;;;31.99;27.92;99391.47;5112022;28;19916;-37
2021/06/12 12:16:38;;;;;;;;;;;;;;;32.02;28.44;99390.81;5112442;28;19919;-38
2021/06/12 12:19:03;;;;;;;;;;;;;;;30.45;29.16;99397.06;5111836;28;19919;-38
2021/06/12 12:21:36;;;;;;;;;;;;;;;29.72;30.95;99392.28;5103123;28;19912;-38
2021/06/12 12:24:01;;;;;;;;;;;;;;;30.52;30.46;99390.97;5112135;28;20009;-38
2021/06/12 12:26:27;;;;;;;;;;;;;;;29.36;32.31;99400.09;5112074;28;19916;-38
2021/06/12 12:28:58;;;;;;;;;;;;;;;28.20;34.82;99398.81;5111702;28;19918;-38
2021/06/12 12:31:24;;;;;;;;;;;;;;;27.66;35.82;99412.97;5111843;28;19960;-37
2021/06/12 12:33:50;;;;;;;;;;;;;;;27.55;36.32;99406.25;5112134;28;19918;-37
2021/06/12 12:36:16;;;;;;;;;;;;;;;27.65;35.47;99406.72;5111979;28;20008;-37
2021/06/12 12:38:41;;;;;;;;;;;;;;;27.99;35.96;99413.22;5111837;28;19915;-38
2021/06/12 12:41:07;;;;;;;;;;;;;;;27.84;35.35;99409.06;5111919;28;19916;-37
2021/06/12 12:43:32;;;;;;;;;;;;;;;28.10;33.61;99416.38;5110293;28;20356;-38